createdAt,value
2018-08-03T00:01:19.277Z,21.10
2018-08-03T00:03:50.089Z,21.00
2018-08-03T00:06:20.463Z,20.90
2018-08-03T00:08:51.243Z,20.90
2018-08-03T00:11:21.864Z,20.90
2018-08-03T00:13:52.531Z,20.90
2018-08-03T00:16:23.281Z,20.80
2018-08-03T00:18:53.872Z,20.80
2018-08-03T00:21:24.155Z,20.70
2018-08-03T00:23:54.290Z,20.60
2018-08-03T00:26:24.505Z,20.50
2018-08-03T00:28:54.878Z,20.50
2018-08-03T00:31:25.121Z,20.50
2018-08-03T00:33:55.574Z,20.50
2018-08-03T00:36:25.897Z,20.50
2018-08-03T00:38:56.368Z,20.40
2018-08-03T00:41:26.814Z,20.40
2018-08-03T00:44:04.552Z,20.30
2018-08-03T00:46:35.035Z,20.30
2018-08-03T00:49:06.605Z,20.30
2018-08-03T00:54:07.392Z,20.10
2018-08-03T00:56:38.132Z,20.00
2018-08-03T00:59:08.635Z,19.90
2018-08-03T01:01:39.400Z,19.80
2018-08-03T01:04:09.995Z,19.80
2018-08-03T01:06:40.436Z,19.80
2018-08-03T01:09:15.926Z,19.70
2018-08-03T01:11:46.488Z,19.60
2018-08-03T01:14:17.204Z,19.70
2018-08-03T01:17:05.547Z,19.60
2018-08-03T01:19:36.336Z,19.70
2018-08-03T01:22:06.771Z,19.70
2018-08-03T01:24:37.393Z,19.60
2018-08-03T01:27:30.583Z,19.60
2018-08-03T01:30:05.219Z,19.60
2018-08-03T01:32:36.095Z,19.50
2018-08-03T01:35:06.587Z,19.50
2018-08-03T01:37:37.275Z,19.50
2018-08-03T01:40:19.562Z,19.50
2018-08-03T01:42:50.221Z,19.40
2018-08-03T01:45:20.652Z,19.40
2018-08-03T01:48:08.172Z,19.30
2018-08-03T01:50:38.554Z,19.20
2018-08-03T01:53:09.144Z,19.10
2018-08-03T01:55:39.728Z,19.10
2018-08-03T01:58:10.126Z,19.10
2018-08-03T02:00:40.563Z,19.20
2018-08-03T02:03:11.078Z,19.30
2018-08-03T02:05:41.578Z,19.30
2018-08-03T02:08:12.088Z,19.50
2018-08-03T02:10:42.731Z,19.50
2018-08-03T02:13:13.158Z,19.50
2018-08-03T02:15:43.731Z,19.50
2018-08-03T02:18:14.340Z,19.40
2018-08-03T02:20:44.919Z,19.30
2018-08-03T02:23:15.472Z,19.30
2018-08-03T02:25:45.911Z,19.30
2018-08-03T02:28:16.337Z,19.30
2018-08-03T02:30:46.814Z,19.30
2018-08-03T02:33:17.400Z,19.40
2018-08-03T02:35:48.072Z,19.30
2018-08-03T02:38:18.736Z,19.20
2018-08-03T02:40:49.355Z,19.20
2018-08-03T02:43:20.046Z,19.20
2018-08-03T02:45:50.519Z,19.20
2018-08-03T02:51:22.380Z,19.20
2018-08-03T02:53:53.199Z,19.10
2018-08-03T02:56:24.258Z,19.10
2018-08-03T02:58:55.264Z,19.10
2018-08-03T03:01:26.249Z,19.10
2018-08-03T03:03:56.923Z,19.10
2018-08-03T03:06:28.003Z,19.10
2018-08-03T03:08:58.971Z,19.00
2018-08-03T03:11:29.547Z,19.00
2018-08-03T03:14:00.122Z,19.00
2018-08-03T03:16:30.519Z,19.00
2018-08-03T03:19:00.848Z,19.00
2018-08-03T03:21:31.303Z,18.90
2018-08-03T03:24:01.836Z,18.90
2018-08-03T03:26:32.348Z,18.80
2018-08-03T03:29:02.992Z,18.80
2018-08-03T03:31:33.872Z,18.80
2018-08-03T03:34:04.333Z,18.80
2018-08-03T03:36:35.140Z,18.80
2018-08-03T03:39:09.771Z,18.80
2018-08-03T03:41:50.588Z,18.80
2018-08-03T03:44:21.065Z,18.80
2018-08-03T03:46:51.562Z,18.80
2018-08-03T03:49:22.079Z,18.80
2018-08-03T03:51:52.548Z,18.80
2018-08-03T03:54:22.994Z,18.80
2018-08-03T03:56:53.485Z,18.80
2018-08-03T03:59:23.863Z,18.80
2018-08-03T04:01:54.279Z,18.80
2018-08-03T04:04:24.724Z,18.70
2018-08-03T04:06:55.407Z,18.70
2018-08-03T04:09:39.525Z,18.70
2018-08-03T04:12:10.385Z,18.70
2018-08-03T04:14:41.131Z,18.60
2018-08-03T04:17:11.656Z,18.50
2018-08-03T04:19:41.931Z,18.50
2018-08-03T04:22:12.448Z,18.50
2018-08-03T04:24:42.994Z,18.50
2018-08-03T04:27:13.667Z,18.50
2018-08-03T04:29:44.126Z,18.60
2018-08-03T04:34:44.619Z,18.60
2018-08-03T04:37:18.823Z,18.70
2018-08-03T04:39:49.202Z,18.80
2018-08-03T04:42:19.870Z,18.80
2018-08-03T04:44:50.386Z,18.90
2018-08-03T04:47:21.319Z,18.90
2018-08-03T04:49:51.850Z,19.00
2018-08-03T04:52:22.398Z,19.10
2018-08-03T04:54:52.827Z,19.30
2018-08-03T04:57:23.219Z,19.40
2018-08-03T04:59:53.630Z,19.60
2018-08-03T05:02:24.081Z,19.80
2018-08-03T05:04:54.612Z,20.00
2018-08-03T05:07:24.975Z,20.20
2018-08-03T05:09:55.511Z,20.30
2018-08-03T05:12:25.968Z,20.50
2018-08-03T05:14:56.435Z,20.70
2018-08-03T05:17:26.923Z,21.00
2018-08-03T05:19:57.424Z,21.30
2018-08-03T05:22:27.892Z,21.90
2018-08-03T05:24:58.334Z,22.60
2018-08-03T05:27:28.884Z,23.10
2018-08-03T05:29:59.299Z,23.60
2018-08-03T05:32:29.944Z,24.20
2018-08-03T05:35:00.417Z,25.30
2018-08-03T05:37:30.971Z,26.30
2018-08-03T05:40:01.477Z,27.00
2018-08-03T05:42:36.070Z,28.00
2018-08-03T05:45:07.367Z,28.50
2018-08-03T05:47:37.811Z,28.70
2018-08-03T05:50:12.776Z,29.60
2018-08-03T05:52:43.293Z,30.50
2018-08-03T05:55:24.020Z,30.40
2018-08-03T05:57:54.455Z,30.00
2018-08-03T06:00:25.542Z,29.80
2018-08-03T06:02:56.033Z,30.20
2018-08-03T06:05:26.743Z,29.90
2018-08-03T06:07:57.264Z,29.10
2018-08-03T06:10:27.879Z,29.50
2018-08-03T06:15:58.984Z,29.50
2018-08-03T06:18:29.448Z,29.20
2018-08-03T06:21:08.223Z,29.30
2018-08-03T06:23:38.830Z,30.40
2018-08-03T06:26:09.756Z,31.50
2018-08-03T06:28:40.319Z,32.30
2018-08-03T06:31:10.823Z,33.20
2018-08-03T06:33:41.308Z,32.80
2018-08-03T06:38:50.199Z,32.30
2018-08-03T06:41:20.871Z,32.80
2018-08-03T06:43:52.399Z,33.40
2018-08-03T06:46:22.860Z,34.00
2018-08-03T06:48:53.583Z,34.00
2018-08-03T06:53:57.274Z,31.30
2018-08-03T06:56:29.763Z,32.00
2018-08-03T06:59:00.187Z,32.50
2018-08-03T07:01:32.896Z,33.50
2018-08-03T07:04:04.456Z,33.40
2018-08-03T07:06:35.776Z,33.80
2018-08-03T07:09:11.761Z,33.60
2018-08-03T07:11:42.438Z,32.30
2018-08-03T07:14:13.121Z,31.70
2018-08-03T07:16:46.693Z,32.00
2018-08-03T07:19:17.675Z,31.90
2018-08-03T07:21:48.200Z,32.40
2018-08-03T07:24:18.602Z,31.80
2018-08-03T07:26:49.472Z,31.90
2018-08-03T07:29:20.074Z,31.90
2018-08-03T07:31:50.748Z,32.20
2018-08-03T07:34:21.323Z,32.40
2018-08-03T07:36:52.389Z,32.20
2018-08-03T07:39:22.973Z,31.90
2018-08-03T07:41:55.443Z,31.50
2018-08-03T07:44:25.790Z,31.10
2018-08-03T07:46:56.196Z,31.20
2018-08-03T07:49:26.734Z,31.50
2018-08-03T07:51:57.324Z,31.10
2018-08-03T07:56:57.647Z,31.40
2018-08-03T07:59:28.186Z,31.10
2018-08-03T08:01:58.850Z,31.40
2018-08-03T08:04:29.230Z,31.80
2018-08-03T08:06:59.607Z,32.30
2018-08-03T08:09:30.219Z,32.40
2018-08-03T08:12:00.875Z,32.30
2018-08-03T08:14:31.290Z,32.80
2018-08-03T08:17:01.798Z,32.60
2018-08-03T08:19:32.080Z,32.90
2018-08-03T08:22:02.619Z,32.60
2018-08-03T08:24:33.312Z,32.30
2018-08-03T08:27:03.757Z,32.30
2018-08-03T08:29:34.412Z,31.80
2018-08-03T08:32:04.884Z,32.00
2018-08-03T08:34:35.324Z,32.20
2018-08-03T08:37:05.948Z,32.70
2018-08-03T08:39:36.326Z,32.90
2018-08-03T08:42:07.160Z,32.90
2018-08-03T08:44:37.876Z,33.00
2018-08-03T08:49:38.083Z,33.20
2018-08-03T08:52:08.409Z,33.40
2018-08-03T08:54:39.429Z,33.90
2018-08-03T08:57:09.883Z,33.70
2018-08-03T09:02:12.296Z,34.00
2018-08-03T09:10:31.023Z,34.90
2018-08-03T09:13:01.354Z,35.40
2018-08-03T09:15:31.962Z,36.10
2018-08-03T09:18:02.198Z,35.80
2018-08-03T09:20:32.067Z,35.90
2018-08-03T09:23:02.211Z,35.50
2018-08-03T09:25:32.506Z,36.00
2018-08-03T09:28:02.655Z,35.60
2018-08-03T09:30:32.541Z,35.40
2018-08-03T09:33:02.763Z,35.90
2018-08-03T09:35:32.934Z,36.60
2018-08-03T09:38:03.372Z,36.20
2018-08-03T09:40:33.511Z,36.60
2018-08-03T09:43:04.071Z,36.80
2018-08-03T09:45:33.986Z,36.90
2018-08-03T09:48:04.151Z,37.00
2018-08-03T09:50:34.705Z,37.10
2018-08-03T09:53:05.136Z,36.80
2018-08-03T09:55:35.632Z,36.40
2018-08-03T09:58:05.586Z,36.90
2018-08-03T10:03:10.684Z,36.40
2018-08-03T10:05:41.079Z,36.60
2018-08-03T10:08:12.035Z,36.60
2018-08-03T10:10:42.343Z,37.10
2018-08-03T10:13:13.020Z,37.30
2018-08-03T10:18:13.584Z,36.50
2018-08-03T10:20:44.260Z,36.70
2018-08-03T10:23:14.643Z,36.80
2018-08-03T10:25:45.060Z,36.90
2018-08-03T10:28:15.439Z,36.60
2018-08-03T10:30:49.644Z,36.50
2018-08-03T10:33:20.219Z,36.70
2018-08-03T10:35:50.553Z,37.10
2018-08-03T10:38:20.928Z,36.90
2018-08-03T10:40:51.440Z,36.70
2018-08-03T10:45:51.885Z,36.80
2018-08-03T10:48:22.420Z,37.10
2018-08-03T10:51:00.760Z,36.60
2018-08-03T10:53:34.654Z,36.50
2018-08-03T10:56:05.340Z,37.10
2018-08-03T10:58:35.412Z,37.40
2018-08-03T11:01:06.072Z,38.00
2018-08-03T11:03:36.590Z,37.90
2018-08-03T11:06:13.456Z,38.60
2018-08-03T11:08:43.864Z,38.00
2018-08-03T11:11:15.301Z,37.40
2018-08-03T11:13:45.851Z,37.60
2018-08-03T11:16:16.123Z,37.10
2018-08-03T11:18:46.536Z,36.90
2018-08-03T11:21:17.076Z,36.20
2018-08-03T11:23:47.654Z,36.80
2018-08-03T11:26:18.708Z,37.70
2018-08-03T11:28:49.483Z,38.10
2018-08-03T11:31:19.985Z,37.80
2018-08-03T11:33:51.312Z,37.60
2018-08-03T11:36:21.736Z,37.20
2018-08-03T11:38:52.174Z,37.40
2018-08-03T11:41:22.447Z,37.60
2018-08-03T11:43:52.967Z,38.00
2018-08-03T11:46:23.403Z,37.90
2018-08-03T11:48:54.088Z,37.20
2018-08-03T11:51:24.687Z,36.90
2018-08-03T11:53:55.335Z,36.90
2018-08-03T11:56:25.875Z,37.50
2018-08-03T11:58:56.310Z,38.10
2018-08-03T12:01:26.853Z,37.90
2018-08-03T12:03:57.443Z,37.60
2018-08-03T12:06:39.010Z,37.60
2018-08-03T12:09:09.447Z,38.20
2018-08-03T12:11:40.077Z,38.70
2018-08-03T12:14:10.114Z,38.70
2018-08-03T12:16:40.635Z,38.50
2018-08-03T12:19:11.069Z,38.90
2018-08-03T12:21:41.566Z,38.90
2018-08-03T12:24:11.914Z,38.90
2018-08-03T12:29:12.424Z,39.70
2018-08-03T12:31:48.430Z,38.90
2018-08-03T12:34:18.918Z,38.90
2018-08-03T12:36:49.822Z,39.30
2018-08-03T12:39:20.159Z,39.50
2018-08-03T12:41:50.467Z,39.60
2018-08-03T12:44:20.880Z,39.90
2018-08-03T12:46:51.128Z,40.30
2018-08-03T12:49:21.370Z,39.80
2018-08-03T12:51:51.803Z,39.40
2018-08-03T12:54:21.921Z,39.30
2018-08-03T12:56:51.963Z,39.20
2018-08-03T12:59:22.221Z,38.80
2018-08-03T13:01:52.294Z,38.90
2018-08-03T13:04:22.590Z,39.20
2018-08-03T13:06:52.608Z,39.80
2018-08-03T13:09:23.157Z,40.40
2018-08-03T13:11:53.451Z,39.70
2018-08-03T13:14:23.583Z,40.00
2018-08-03T13:16:53.738Z,39.60
2018-08-03T13:19:23.899Z,39.70
2018-08-03T13:21:54.007Z,38.20
2018-08-03T13:24:24.158Z,38.90
2018-08-03T13:26:54.331Z,39.50
2018-08-03T13:29:24.551Z,40.10
2018-08-03T13:31:54.539Z,40.10
2018-08-03T13:34:24.530Z,40.50
2018-08-03T13:36:54.772Z,39.70
2018-08-03T13:39:24.985Z,39.30
2018-08-03T13:41:55.246Z,40.30
2018-08-03T13:44:25.916Z,40.50
2018-08-03T13:46:56.110Z,41.00
2018-08-03T13:49:26.417Z,40.20
2018-08-03T13:51:56.511Z,40.50
2018-08-03T13:54:26.606Z,40.80
2018-08-03T13:56:56.870Z,40.60
2018-08-03T13:59:27.282Z,40.80
2018-08-03T14:02:24.864Z,41.20
2018-08-03T14:04:55.706Z,41.40
2018-08-03T14:07:27.204Z,40.50
2018-08-03T14:09:57.413Z,41.00
2018-08-03T14:12:27.536Z,40.70
2018-08-03T14:14:57.859Z,41.70
2018-08-03T14:17:28.154Z,42.40
2018-08-03T14:19:58.389Z,41.70
2018-08-03T14:22:28.580Z,41.50
2018-08-03T14:27:28.578Z,41.10
2018-08-03T14:30:01.094Z,40.50
2018-08-03T14:32:31.315Z,40.00
2018-08-03T14:35:01.434Z,39.70
2018-08-03T14:37:31.807Z,39.40
2018-08-03T14:40:02.058Z,40.30
2018-08-03T14:42:32.955Z,40.00
2018-08-03T14:45:03.438Z,40.10
2018-08-03T14:47:33.635Z,40.70
2018-08-03T14:50:03.817Z,41.20
2018-08-03T14:55:03.643Z,41.90
2018-08-03T14:57:41.845Z,40.80
2018-08-03T15:00:12.538Z,40.10
2018-08-03T15:02:43.030Z,37.90
2018-08-03T15:05:30.956Z,37.60
2018-08-03T15:08:01.564Z,38.10
2018-08-03T15:10:32.744Z,38.50
2018-08-03T15:13:03.466Z,38.70
2018-08-03T15:20:39.787Z,39.50
2018-08-03T15:23:10.161Z,38.60
2018-08-03T15:25:40.350Z,38.50
2018-08-03T15:28:10.521Z,39.20
2018-08-03T15:33:10.189Z,40.40
2018-08-03T15:35:40.509Z,40.40
2018-08-03T15:38:10.846Z,39.90
2018-08-03T15:40:41.327Z,39.50
2018-08-03T15:43:11.206Z,39.00
2018-08-03T15:45:41.288Z,39.00
2018-08-03T15:48:11.444Z,39.30
2018-08-03T15:50:41.617Z,39.30
2018-08-03T15:53:11.516Z,39.30
2018-08-03T15:55:42.594Z,39.00
2018-08-03T15:58:13.753Z,39.70
2018-08-03T16:00:44.247Z,39.90
2018-08-03T16:03:14.444Z,40.20
2018-08-03T16:05:55.081Z,40.20
2018-08-03T16:08:25.474Z,40.20
2018-08-03T16:10:56.034Z,40.30
2018-08-03T16:13:26.141Z,40.30
2018-08-03T16:15:56.692Z,39.60
2018-08-03T16:18:26.882Z,38.80
2018-08-03T16:20:57.239Z,39.50
2018-08-03T16:23:29.453Z,39.00
2018-08-03T16:26:00.136Z,38.40
2018-08-03T16:31:01.053Z,38.20
2018-08-03T16:33:31.482Z,38.10
2018-08-03T16:36:02.140Z,38.00
2018-08-03T16:38:32.786Z,37.90
2018-08-03T16:41:03.507Z,37.60
2018-08-03T16:43:34.454Z,37.60
2018-08-03T16:48:36.483Z,37.80
2018-08-03T16:51:14.541Z,37.90
2018-08-03T16:53:45.107Z,37.50
2018-08-03T16:56:15.674Z,38.00
2018-08-03T16:58:46.560Z,37.60
2018-08-03T17:01:17.718Z,37.50
2018-08-03T17:03:49.578Z,37.20
2018-08-03T17:06:20.632Z,37.00
2018-08-03T17:08:51.593Z,36.80
2018-08-03T17:11:22.742Z,36.70
2018-08-03T17:13:53.608Z,36.80
2018-08-03T17:16:24.630Z,36.30
2018-08-03T17:18:55.871Z,36.30
2018-08-03T17:24:03.596Z,34.90
2018-08-03T17:26:34.961Z,34.30
2018-08-03T17:29:06.390Z,33.80
2018-08-03T17:31:37.704Z,33.30
2018-08-03T17:36:42.252Z,32.80
2018-08-03T17:39:13.733Z,32.60
2018-08-03T17:41:44.775Z,32.50
2018-08-03T17:44:16.334Z,32.30
2018-08-03T17:46:47.930Z,32.20
2018-08-03T17:49:19.248Z,32.20
2018-08-03T17:51:50.730Z,32.20
2018-08-03T17:54:21.901Z,32.10
2018-08-03T17:56:53.395Z,32.00
2018-08-03T17:59:24.498Z,31.80
2018-08-03T18:04:27.508Z,31.60
2018-08-03T18:06:58.903Z,31.60
2018-08-03T18:09:30.097Z,31.40
2018-08-03T18:12:01.615Z,31.30
2018-08-03T18:14:34.062Z,31.20
2018-08-03T18:17:04.972Z,31.10
2018-08-03T18:19:36.136Z,31.00
2018-08-03T18:22:07.648Z,31.00
2018-08-03T18:24:39.540Z,30.80
2018-08-03T18:27:16.124Z,30.70
2018-08-03T18:30:06.019Z,30.60
2018-08-03T18:32:36.639Z,30.50
2018-08-03T18:35:07.974Z,30.30
2018-08-03T18:37:44.361Z,30.20
2018-08-03T18:40:15.706Z,30.10
2018-08-03T18:42:57.076Z,30.00
2018-08-03T18:45:28.140Z,29.80
2018-08-03T18:47:59.399Z,29.80
2018-08-03T18:50:32.847Z,29.60
2018-08-03T18:53:04.120Z,29.50
2018-08-03T18:55:35.289Z,29.30
2018-08-03T18:58:06.356Z,29.20
2018-08-03T19:00:37.639Z,29.00
2018-08-03T19:03:08.759Z,28.90
2018-08-03T19:05:40.159Z,28.80
2018-08-03T19:08:11.188Z,28.60
2018-08-03T19:10:42.260Z,28.50
2018-08-03T19:13:13.216Z,28.50
2018-08-03T19:15:44.306Z,28.40
2018-08-03T19:18:16.292Z,28.20
2018-08-03T19:20:47.355Z,28.10
2018-08-03T19:23:18.379Z,27.90
2018-08-03T19:25:49.229Z,27.70
2018-08-03T19:28:20.361Z,27.70
2018-08-03T19:30:51.324Z,27.60
2018-08-03T19:33:22.463Z,27.50
2018-08-03T19:35:53.994Z,27.40
2018-08-03T19:38:25.367Z,27.40
2018-08-03T19:40:56.468Z,27.20
2018-08-03T19:43:27.473Z,27.20
2018-08-03T19:45:58.426Z,27.10
2018-08-03T19:48:32.646Z,27.00
2018-08-03T19:51:05.453Z,27.00
2018-08-03T19:53:36.530Z,26.90
2018-08-03T19:56:08.457Z,26.90
2018-08-03T19:58:39.441Z,26.90
2018-08-03T20:01:11.166Z,26.80
2018-08-03T20:03:47.080Z,26.70
2018-08-03T20:06:18.184Z,26.70
2018-08-03T20:08:49.206Z,26.80
2018-08-03T20:11:32.633Z,26.70
2018-08-03T20:14:03.537Z,26.70
2018-08-03T20:16:34.701Z,26.70
2018-08-03T20:19:27.260Z,26.60
2018-08-03T20:22:01.861Z,26.50
2018-08-03T20:24:45.591Z,26.40
2018-08-03T20:27:18.735Z,26.40
2018-08-03T20:29:49.633Z,26.30
2018-08-03T20:32:24.600Z,26.30
2018-08-03T20:34:55.126Z,26.20
2018-08-03T20:37:25.540Z,26.20
2018-08-03T20:39:56.155Z,26.10
2018-08-03T20:42:26.756Z,26.10
2018-08-03T20:44:57.361Z,26.00
2018-08-03T20:47:28.003Z,26.00
2018-08-03T20:50:14.556Z,26.00
2018-08-03T20:52:45.226Z,26.00
2018-08-03T20:55:16.398Z,26.00
2018-08-03T20:57:47.285Z,26.00
2018-08-03T21:00:18.259Z,26.00
2018-08-03T21:02:49.390Z,25.90
2018-08-03T21:05:20.408Z,25.90
2018-08-03T21:07:50.992Z,25.80
2018-08-03T21:10:21.776Z,25.80
2018-08-03T21:12:52.815Z,25.80
2018-08-03T21:15:23.758Z,25.70
2018-08-03T21:17:54.967Z,25.60
2018-08-03T21:20:26.095Z,25.60
2018-08-03T21:22:56.665Z,25.60
2018-08-03T21:25:27.026Z,25.60
2018-08-03T21:27:57.612Z,25.50
2018-08-03T21:30:28.596Z,25.50
2018-08-03T21:33:00.214Z,25.40
2018-08-03T21:35:31.159Z,25.40
2018-08-03T21:38:01.688Z,25.40
2018-08-03T21:40:32.606Z,25.40
2018-08-03T21:43:10.172Z,25.40
2018-08-03T21:45:43.943Z,25.30
2018-08-03T21:48:14.822Z,25.20
2018-08-03T21:50:48.115Z,25.10
2018-08-03T21:53:18.612Z,24.90
2018-08-03T21:55:55.501Z,24.80
2018-08-03T21:58:25.991Z,24.60
2018-08-03T22:00:56.554Z,24.50
2018-08-03T22:03:27.508Z,24.40
2018-08-03T22:05:59.038Z,24.30
2018-08-03T22:08:30.118Z,24.20
2018-08-03T22:11:22.729Z,24.10
2018-08-03T22:13:54.207Z,24.00
2018-08-03T22:16:25.116Z,24.00
2018-08-03T22:18:56.461Z,24.00
2018-08-03T22:21:27.395Z,24.00
2018-08-03T22:23:58.616Z,24.00
2018-08-03T22:26:29.439Z,24.00
2018-08-03T22:29:00.403Z,23.90
2018-08-03T22:31:31.401Z,23.90
2018-08-03T22:34:02.862Z,24.00
2018-08-03T22:36:33.366Z,24.00
2018-08-03T22:39:04.138Z,24.00
2018-08-03T22:41:34.607Z,23.90
2018-08-03T22:44:05.167Z,23.80
2018-08-03T22:46:35.575Z,23.70
2018-08-03T22:49:08.323Z,23.70
2018-08-03T22:51:39.223Z,23.60
2018-08-03T22:54:09.820Z,23.50
2018-08-03T22:56:40.301Z,23.40
2018-08-03T22:59:11.010Z,23.40
2018-08-03T23:01:41.499Z,23.50
2018-08-03T23:04:12.451Z,23.40
2018-08-03T23:06:59.575Z,23.50
2018-08-03T23:09:30.239Z,23.50
2018-08-03T23:12:00.992Z,23.40
2018-08-03T23:14:31.536Z,23.40
2018-08-03T23:17:02.147Z,23.20
2018-08-03T23:19:32.846Z,23.20
2018-08-03T23:22:03.227Z,23.00
2018-08-03T23:27:39.435Z,22.90
2018-08-03T23:30:11.474Z,22.90
2018-08-03T23:32:42.056Z,22.90
2018-08-03T23:35:12.799Z,22.90
2018-08-03T23:37:43.567Z,22.80
2018-08-03T23:40:14.162Z,22.80
2018-08-03T23:43:03.210Z,22.70
2018-08-03T23:45:36.729Z,22.50
2018-08-03T23:48:07.239Z,22.40
2018-08-03T23:50:37.689Z,22.40
2018-08-03T23:53:08.331Z,22.40
2018-08-03T23:55:38.813Z,22.40
2018-08-03T23:58:10.419Z,22.40
